Ignacio, CO

1:23 PM MDT on September 23, 2014 (GMT -0600)
Durango-La Plata County | Change Station
CLOSE
Current Station
Airport
Location: Durango,
Elevation: 6683 ft
Nearby Weather Stations

Elev 6683 ft 37.14 °N, 107.76 °W | Updated 30 minutes ago

Clear
Clear
73 °F
Feels Like 73 °F
N
8
Wind Variable Wind from SSW
Gusts 17 mph

Today
High -- | Low -- °F
--% Chance of Precip.
Yesterday
High -- | Low -- °F
Precip. -- in
6:59 AM 7:06 PM
Waning Crescent, 0% visible
Pressure 30.10 in
Visibility 10.0 miles
Clouds Clear
Dew Point 43 °F
Humidity 34%
Rainfall 0.00 in
Snow Depth 10 in , 0 in , 0 in
UV 9 out of 12
Pollen 5.70 out of 12
Air Quality Not available.
Flu Activity Not available.
METAR KDRO 231853Z AUTO 21007G15KT 10SM CLR 23/06 A3030 RMK AO2 SLP191 T02280061

More Conditions Fewer Conditions

Pressure 30.10 in
Visibility 10.0 miles
Clouds Clear
Dew Point 43 °F
Humidity 34%
Rainfall 0.00 in
Snow Depth 10 in , 0 in , 0 in
UV 9 out of 12
Pollen 5.70 out of 12
Air Quality Not available.
Flu Activity Not available.
METAR KDRO 231853Z AUTO 21007G15KT 10SM CLR 23/06 A3030 RMK AO2 SLP191 T02280061

More Conditions Fewer Conditions

10-Day Weather Forecast

Almanac

Astronomy

Sep. 23, 2014 Rise Set
Actual Time 6:59 AM MDT 7:06 PM MDT
Civil Twilight 6:33 AM MDT 7:32 PM MDT
Nautical Twilight 6:03 AM MDT 8:02 PM MDT
Astronomical Twilight 5:32 AM MDT 8:33 PM MDT
Moon 6:27 AM MDT 6:47 PM MDT
Length of Visible Light 12h 58m
Length of Day
12h 06m
Tomorrow will be 2m 22s shorter.
Waning Crescent, 0% of the Moon is Illuminated
Today
Waning Crescent
Sep 24
New
Oct 1
First Quarter
Oct 8
Full
Oct 15
Last Quarter

Today's Extremes

State Highs State Lows

Community

WunderPhotos

Upload Photos

1,755,784 photos uploaded!

Nearby

Snow Depth

Station Depth Elevation
Rawah 10 in 9020 ft
Michigan Creek 0 in 10600 ft
Berthoud Summit 0 in 11300 ft
Dry Lake 0 in 8400 ft
Apishapa 0 in 10000 ft

Earthquake Activity

City Distance Mag. Time & Date
No recent earthquake activity has been reported nearby.
Minimum magnitude displayed is 2.5.

Coastal Water Temperatures

Place Temperature
No Stations Reporting

Nearby Weather Stations